Aérodrome :
LOGIN :

S'inscrire | Disclaimer

   EN    FR    IT 

 










Légende :    VFR   VFR Marginal   IFR   IFR Intensif   IFR Très Intensif
Visi : 
Plafond : 
>= 8 km
>= 3000ft
5 à 8 km
1000 à 3000 ft
1500m à 5 km
500 à 1000 ft
800 à 1500m
200 à 500 ft
< 800m
< 200 ft
Symboles :   Orages  Brouillard  Fortes neiges  Fortes précipitations  Vent > 20 kt
SIGMETs :   Divers  Orages  Givrage  Turbulence  Onde Orograph.  Cendres Volcan.







- Altitude de l'aérodrome : 584 ft
- Voir les cartes d'approche


LFPV - Villacoublay Vélizy

DERNIER METAR :
  • 241530Z AUTO 21007KT 180V260 9999 ///CB 24/14 Q1016 TEMPO 4000 SHRA

METARs EXPIRÉS :
  • 241500Z AUTO 22005KT 160V290 9999 FEW039/// ///CB 23/14 Q1016 TEMPO 4000 SHRA
  • 241430Z AUTO 24007KT 200V280 CAVOK 23/14 Q1016 TEMPO 4000 SHRA BKN025CB
  • 241400Z AUTO 20006KT 160V250 9999 FEW037/// ///CB 22/14 Q1016
  • 241330Z AUTO 25006KT 200V280 9999 FEW034 22/14 Q1016 TEMPO 2500 -TSRA BKN025CB
  • 241300Z AUTO 22004KT 170V280 9999 FEW035 22/15 Q1017 TEMPO 2500 -TSRA BKN025CB

TAF TAF LFPV
Valide du 24 à 15h jusqu'au 25 à 15h UTC


241400Z 2415/2515 22008KT 9999 NSC
TEMPO 2415/2421 BKN030CB
PROB30
TEMPO 2415/2420 4000 SHRA BKN025CB
TEMPO 2505/2508 BKN003
PROB40
TEMPO 2505/2507 3000 BR
Pas de NOTAMs connus pour ce terrain.
2 SIGMETs publiés pour la FIR Paris (LFFF) :
 
Orages noyés dans la masse
LFFF SIGMET 3 VALID 241415/241600 LFPW
LFFF PARIS FIR/UIR EMBD TS OBS WI N5045 E00300 - N5015 E00415 - N4930 E00045 - N5000 E00015 - N5045 E00300 TOP FL370 MOV NW 10KT INTSF=
Orages noyés dans la masse
LFFF SIGMET 2 VALID 241400/241600 LFPW
LFFF PARIS FIR/UIR EMBD TS OBS WI N4915 E00530 - N4900 E00445 - N4830 E00530 - N4830 E00500 - N4900 E00430 - N4930 E00345 - N5000 E00430 - N4930 E00530 TOP FL360 MOV NNW 10KT NC=



MET'MAP, la Météo Aéronautique d'un coup d'oeil ! - Copyright ORBIFLY Décembre 2007 - Disclaimer

ORBIFLY MET'MAP TEAM :

Programmation & Développement : Alexandra Zaïnal
Conception & Développement : Baudouin d'Aumeries
Co-Programmation & Développement : Marc-Olivier Méhu
Soutien technique & logistique : Manuel Goepfert

Contact : metmap@orbifly.com




SOURCES & CREDITS :

   NOAA